createdAt,value
2022-12-08T00:00:50.082Z,8.07
2022-12-08T00:02:54.287Z,8.90
2022-12-08T00:05:17.247Z,9.35
2022-12-08T00:07:38.711Z,9.10
2022-12-08T00:09:43.773Z,8.90
2022-12-08T00:11:48.051Z,8.25
2022-12-08T00:13:52.016Z,7.97
2022-12-08T00:16:01.996Z,8.70
2022-12-08T00:18:06.876Z,8.50
2022-12-08T00:20:13.174Z,8.13
2022-12-08T00:22:17.477Z,8.38
2022-12-08T00:24:22.309Z,8.65
2022-12-08T00:26:26.750Z,7.50
2022-12-08T00:28:30.744Z,8.90
2022-12-08T00:30:35.331Z,7.90
2022-12-08T00:32:39.244Z,7.65
2022-12-08T00:34:42.939Z,7.78
2022-12-08T00:36:48.232Z,7.85
2022-12-08T00:38:52.086Z,8.30
2022-12-08T00:40:55.909Z,8.27
2022-12-08T00:42:59.813Z,7.70
2022-12-08T00:45:03.592Z,7.60
2022-12-08T00:47:07.558Z,7.78
2022-12-08T00:49:11.261Z,7.55
2022-12-08T00:51:15.116Z,6.88
2022-12-08T00:53:20.414Z,7.85
2022-12-08T00:55:24.041Z,8.88
2022-12-08T00:57:27.928Z,8.35
2022-12-08T00:59:31.741Z,7.88
2022-12-08T01:01:36.144Z,7.97
2022-12-08T01:03:40.547Z,8.15
2022-12-08T01:05:44.870Z,9.00
2022-12-08T01:07:49.842Z,10.05
2022-12-08T01:09:55.063Z,8.45
2022-12-08T01:11:58.882Z,9.05
2022-12-08T01:14:02.634Z,9.27
2022-12-08T01:16:06.681Z,9.50
2022-12-08T01:18:10.178Z,9.00
2022-12-08T01:20:14.006Z,8.20
2022-12-08T01:22:17.821Z,9.52
2022-12-08T01:24:23.016Z,9.15
2022-12-08T01:26:28.168Z,7.82
2022-12-08T01:28:32.974Z,6.40
2022-12-08T01:30:36.671Z,7.03
2022-12-08T01:32:40.358Z,7.80
2022-12-08T01:34:44.625Z,7.15
2022-12-08T01:36:48.765Z,6.93
2022-12-08T01:38:52.842Z,7.70
2022-12-08T01:40:56.442Z,7.03
2022-12-08T01:43:01.708Z,7.35
2022-12-08T01:45:07.725Z,7.68
2022-12-08T01:47:11.618Z,6.57
2022-12-08T01:49:19.603Z,6.50
2022-12-08T01:51:23.930Z,6.68
2022-12-08T01:53:30.965Z,6.78
2022-12-08T01:55:39.358Z,6.97
2022-12-08T01:57:46.634Z,6.13
2022-12-08T01:59:56.273Z,5.60
2022-12-08T02:02:00.418Z,6.50
2022-12-08T02:04:06.037Z,5.65
2022-12-08T02:06:10.867Z,5.97
2022-12-08T02:08:16.157Z,5.72
2022-12-08T02:10:22.114Z,5.63
2022-12-08T02:12:26.165Z,5.88
2022-12-08T02:14:30.000Z,6.03
2022-12-08T02:16:44.809Z,7.05
2022-12-08T02:19:29.579Z,6.65
2022-12-08T02:21:33.635Z,5.55
2022-12-08T02:23:49.105Z,5.72
2022-12-08T02:26:10.217Z,5.90
2022-12-08T02:28:45.248Z,6.18
2022-12-08T02:30:56.077Z,6.15
2022-12-08T02:33:44.803Z,6.05
2022-12-08T02:35:58.786Z,6.75
2022-12-08T02:38:10.043Z,5.97
2022-12-08T02:40:20.984Z,5.88
2022-12-08T02:42:29.799Z,5.90
2022-12-08T02:44:39.161Z,5.85
2022-12-08T02:46:49.237Z,5.18
2022-12-08T02:48:54.678Z,5.97
2022-12-08T02:51:00.800Z,5.28
2022-12-08T02:55:31.156Z,5.63
2022-12-08T02:57:46.644Z,5.78
2022-12-08T03:00:06.110Z,5.70
2022-12-08T03:02:37.553Z,5.43
2022-12-08T03:04:49.569Z,5.57
2022-12-08T03:07:07.180Z,5.50
2022-12-08T03:09:19.897Z,6.13
2022-12-08T03:11:31.007Z,6.53
2022-12-08T03:13:41.026Z,5.93
2022-12-08T03:15:48.472Z,5.60
2022-12-08T03:17:56.756Z,5.57
2022-12-08T03:20:07.546Z,6.05
2022-12-08T03:22:14.900Z,5.97
2022-12-08T03:24:20.460Z,6.25
2022-12-08T03:26:30.338Z,5.63
2022-12-08T03:28:34.239Z,5.95
2022-12-08T03:30:41.287Z,6.18
2022-12-08T03:32:49.504Z,5.60
2022-12-08T03:34:53.897Z,5.95
2022-12-08T03:36:58.898Z,5.78
2022-12-08T03:39:05.720Z,5.53
2022-12-08T03:41:20.979Z,5.63
2022-12-08T03:43:24.745Z,5.15
2022-12-08T03:45:28.498Z,5.30
2022-12-08T03:47:32.393Z,5.35
2022-12-08T03:49:36.010Z,5.05
2022-12-08T03:51:39.749Z,4.65
2022-12-08T03:53:43.765Z,4.78
2022-12-08T03:55:48.941Z,4.65
2022-12-08T03:57:52.800Z,4.15
2022-12-08T03:59:56.669Z,4.93
2022-12-08T04:02:00.843Z,4.93
2022-12-08T04:04:04.716Z,4.30
2022-12-08T04:06:09.400Z,5.05
2022-12-08T04:08:13.255Z,4.82
2022-12-08T04:10:17.323Z,4.70
2022-12-08T04:12:22.922Z,4.07
2022-12-08T04:14:26.917Z,4.32
2022-12-08T04:16:30.674Z,4.50
2022-12-08T04:18:37.246Z,4.10
2022-12-08T04:20:42.183Z,3.92
2022-12-08T04:22:46.462Z,4.35
2022-12-08T04:24:50.231Z,4.55
2022-12-08T04:26:53.897Z,4.68
2022-12-08T04:28:58.862Z,4.63
2022-12-08T04:31:02.872Z,4.68
2022-12-08T04:33:06.517Z,4.40
2022-12-08T04:35:12.590Z,4.10
2022-12-08T04:37:15.973Z,4.00
2022-12-08T04:39:19.314Z,4.20
2022-12-08T04:41:22.629Z,4.10
2022-12-08T04:43:26.088Z,4.38
2022-12-08T04:45:30.797Z,3.97
2022-12-08T04:47:34.547Z,3.97
2022-12-08T04:49:37.828Z,4.00
2022-12-08T04:51:41.243Z,3.97
2022-12-08T04:53:46.622Z,3.72
2022-12-08T04:55:50.565Z,3.95
2022-12-08T04:57:54.105Z,4.60
2022-12-08T04:59:57.645Z,4.45
2022-12-08T05:02:02.598Z,4.50
2022-12-08T05:04:06.075Z,4.07
2022-12-08T05:06:11.820Z,3.90
2022-12-08T05:08:15.368Z,4.47
2022-12-08T05:10:18.700Z,4.38
2022-12-08T05:12:22.621Z,3.92
2022-12-08T05:14:25.955Z,4.28
2022-12-08T05:16:29.450Z,4.60
2022-12-08T05:18:34.506Z,4.43
2022-12-08T05:20:37.996Z,4.53
2022-12-08T05:22:41.393Z,4.03
2022-12-08T05:24:47.702Z,4.75
2022-12-08T05:26:51.481Z,4.13
2022-12-08T05:28:55.331Z,4.20
2022-12-08T05:30:59.480Z,4.47
2022-12-08T05:33:04.068Z,4.78
2022-12-08T05:35:10.580Z,4.50
2022-12-08T05:37:14.458Z,4.13
2022-12-08T05:39:18.927Z,4.03
2022-12-08T05:41:23.552Z,4.25
2022-12-08T05:43:28.569Z,4.10
2022-12-08T05:45:32.927Z,4.60
2022-12-08T05:47:36.663Z,4.68
2022-12-08T05:49:41.286Z,4.60
2022-12-08T05:51:46.681Z,4.53
2022-12-08T05:53:53.474Z,4.40
2022-12-08T05:56:00.271Z,4.53
2022-12-08T05:58:07.996Z,4.90
2022-12-08T06:00:13.227Z,4.38
2022-12-08T06:02:17.254Z,5.45
2022-12-08T06:04:20.940Z,4.65
2022-12-08T06:06:24.752Z,5.78
2022-12-08T06:08:29.917Z,5.07
2022-12-08T06:10:33.730Z,5.45
2022-12-08T06:12:37.431Z,5.55
2022-12-08T06:14:41.678Z,5.88
2022-12-08T06:16:45.216Z,5.68
2022-12-08T06:18:49.128Z,5.97
2022-12-08T06:20:53.121Z,5.63
2022-12-08T06:22:57.326Z,5.22
2022-12-08T06:25:05.933Z,5.75
2022-12-08T06:27:11.012Z,5.65
2022-12-08T06:29:14.515Z,5.90
2022-12-08T06:31:20.222Z,6.15
2022-12-08T06:33:24.425Z,5.70
2022-12-08T06:35:28.461Z,6.75
2022-12-08T06:37:32.383Z,6.35
2022-12-08T06:39:36.678Z,6.50
2022-12-08T06:41:55.555Z,6.80
2022-12-08T06:44:00.091Z,6.57
2022-12-08T06:46:06.328Z,7.13
2022-12-08T06:48:10.112Z,7.32
2022-12-08T06:50:14.754Z,6.80
2022-12-08T06:52:19.545Z,7.38
2022-12-08T06:54:23.957Z,6.97
2022-12-08T06:56:30.334Z,6.47
2022-12-08T06:58:35.736Z,7.38
2022-12-08T07:00:39.495Z,8.15
2022-12-08T07:02:44.041Z,7.07
2022-12-08T07:04:48.183Z,7.78
2022-12-08T07:06:52.332Z,7.57
2022-12-08T07:08:59.573Z,7.43
2022-12-08T07:11:11.766Z,7.28
2022-12-08T07:13:17.913Z,7.68
2022-12-08T07:15:23.235Z,8.32
2022-12-08T07:17:28.736Z,6.43
2022-12-08T07:19:34.567Z,7.60
2022-12-08T07:21:40.787Z,7.07
2022-12-08T07:23:50.249Z,7.07
2022-12-08T07:28:03.417Z,6.72
2022-12-08T07:30:11.008Z,6.55
2022-12-08T07:32:16.157Z,7.18
2022-12-08T07:34:20.623Z,6.10
2022-12-08T07:36:25.479Z,6.45
2022-12-08T07:38:30.793Z,6.00
2022-12-08T07:40:34.561Z,5.80
2022-12-08T07:42:38.748Z,6.03
2022-12-08T07:44:43.231Z,5.85
2022-12-08T07:46:48.575Z,5.82
2022-12-08T07:48:54.101Z,5.47
2022-12-08T07:51:02.928Z,5.30
2022-12-08T07:53:08.804Z,5.78
2022-12-08T07:55:13.067Z,5.80
2022-12-08T07:57:18.693Z,4.38
2022-12-08T07:59:23.056Z,4.68
2022-12-08T08:01:30.470Z,4.60
2022-12-08T08:03:34.593Z,4.82
2022-12-08T08:05:40.562Z,4.85
2022-12-08T08:07:46.918Z,4.13
2022-12-08T08:09:50.687Z,4.60
2022-12-08T08:12:22.382Z,4.85
2022-12-08T08:14:19.239Z,4.57
2022-12-08T08:16:23.332Z,4.53
2022-12-08T08:18:27.719Z,4.50
2022-12-08T08:20:33.241Z,5.55
2022-12-08T08:22:38.636Z,4.75
2022-12-08T08:24:45.075Z,4.55
2022-12-08T08:26:49.116Z,5.10
2022-12-08T08:28:55.778Z,4.20
2022-12-08T08:30:59.995Z,4.07
2022-12-08T08:33:06.103Z,4.10
2022-12-08T08:35:11.248Z,4.18
2022-12-08T08:37:15.340Z,3.97
2022-12-08T08:39:21.265Z,4.63
2022-12-08T08:41:25.588Z,4.15
2022-12-08T08:43:37.787Z,4.43
2022-12-08T08:45:42.124Z,4.80
2022-12-08T08:47:46.548Z,4.45
2022-12-08T08:49:50.703Z,4.20
2022-12-08T08:51:55.146Z,4.55
2022-12-08T08:53:59.231Z,4.25
2022-12-08T08:56:06.561Z,4.50
2022-12-08T08:58:10.497Z,4.47
2022-12-08T09:00:15.487Z,4.30
2022-12-08T09:02:20.888Z,4.10
2022-12-08T09:04:25.779Z,4.68
2022-12-08T09:06:30.144Z,4.63
2022-12-08T09:08:34.317Z,5.00
2022-12-08T09:10:38.055Z,4.82
2022-12-08T09:12:44.065Z,4.97
2022-12-08T09:14:47.698Z,4.78
2022-12-08T09:16:51.491Z,4.95
2022-12-08T09:18:55.598Z,4.90
2022-12-08T09:21:05.146Z,5.25
2022-12-08T09:23:09.412Z,4.97
2022-12-08T09:25:13.223Z,5.47
2022-12-08T09:27:17.128Z,4.82
2022-12-08T09:29:22.257Z,4.85
2022-12-08T09:31:27.695Z,5.15
2022-12-08T09:33:32.114Z,5.13
2022-12-08T09:35:36.355Z,5.20
2022-12-08T09:37:40.563Z,4.97
2022-12-08T09:39:45.642Z,5.22
2022-12-08T09:41:52.744Z,5.03
2022-12-08T09:44:06.605Z,4.47
2022-12-08T09:46:15.377Z,5.18
2022-12-08T09:48:24.609Z,5.03
2022-12-08T09:50:35.629Z,4.68
2022-12-08T09:52:43.228Z,4.90
2022-12-08T09:54:47.420Z,4.80
2022-12-08T09:56:56.850Z,4.65
2022-12-08T09:59:04.934Z,4.50
2022-12-08T10:01:12.637Z,4.68
2022-12-08T10:03:17.066Z,4.50
2022-12-08T10:05:21.916Z,4.40
2022-12-08T10:07:31.532Z,4.85
2022-12-08T10:09:43.422Z,5.15
2022-12-08T10:11:55.105Z,4.95
2022-12-08T10:14:11.779Z,5.65
2022-12-08T10:16:29.725Z,5.15
2022-12-08T10:18:37.955Z,5.80
2022-12-08T10:20:43.930Z,5.78
2022-12-08T10:22:51.755Z,5.88
2022-12-08T10:25:01.855Z,5.85
2022-12-08T10:27:07.118Z,5.80
2022-12-08T10:29:13.947Z,5.45
2022-12-08T10:31:21.524Z,5.82
2022-12-08T10:33:25.574Z,5.88
2022-12-08T10:35:46.057Z,5.05
2022-12-08T10:37:57.998Z,5.20
2022-12-08T10:40:04.250Z,5.78
2022-12-08T10:42:18.195Z,6.07
2022-12-08T10:46:29.369Z,5.97
2022-12-08T10:48:33.194Z,5.35
2022-12-08T10:50:38.093Z,5.60
2022-12-08T10:52:42.902Z,5.38
2022-12-08T10:54:46.521Z,5.10
2022-12-08T10:56:55.541Z,5.57
2022-12-08T10:59:18.795Z,5.03
2022-12-08T11:01:25.452Z,4.28
2022-12-08T11:03:33.103Z,4.68
2022-12-08T11:05:38.113Z,4.80
2022-12-08T11:07:49.173Z,4.70
2022-12-08T11:09:58.417Z,5.07
2022-12-08T11:12:08.003Z,4.82
2022-12-08T11:14:18.699Z,5.03
2022-12-08T11:16:24.474Z,4.85
2022-12-08T11:18:40.775Z,5.57
2022-12-08T11:20:44.292Z,4.80
2022-12-08T11:22:53.137Z,5.35
2022-12-08T11:25:02.891Z,5.47
2022-12-08T11:27:07.804Z,5.18
2022-12-08T11:29:12.972Z,5.57
2022-12-08T11:31:26.726Z,5.22
2022-12-08T11:33:31.812Z,4.47
2022-12-08T11:35:38.673Z,4.93
2022-12-08T11:37:44.975Z,4.95
2022-12-08T11:39:51.540Z,5.40
2022-12-08T11:41:58.031Z,5.30
2022-12-08T11:44:08.133Z,4.88
2022-12-08T11:46:15.558Z,5.10
2022-12-08T11:48:24.027Z,6.47
2022-12-08T11:50:34.030Z,5.57
2022-12-08T11:52:46.687Z,5.85
2022-12-08T11:54:54.351Z,6.60
2022-12-08T11:56:59.912Z,6.60
2022-12-08T11:59:18.863Z,6.53
2022-12-08T12:01:23.674Z,4.75
2022-12-08T12:03:35.465Z,6.32
2022-12-08T12:06:18.191Z,7.05
2022-12-08T12:08:31.644Z,6.75
2022-12-08T12:10:47.620Z,7.07
2022-12-08T12:13:10.429Z,7.00
2022-12-08T12:16:07.920Z,5.90
2022-12-08T12:18:18.460Z,6.97
2022-12-08T12:20:28.823Z,5.60
2022-12-08T12:22:38.997Z,7.20
2022-12-08T12:24:46.491Z,6.80
2022-12-08T12:26:59.177Z,6.63
2022-12-08T12:29:06.579Z,6.47
2022-12-08T12:31:13.453Z,7.10
2022-12-08T12:33:19.595Z,6.43
2022-12-08T12:35:34.327Z,7.32
2022-12-08T12:37:43.573Z,6.72
2022-12-08T12:39:52.169Z,7.00
2022-12-08T12:41:58.263Z,7.60
2022-12-08T12:44:49.139Z,7.68
2022-12-08T12:47:00.659Z,7.10
2022-12-08T12:49:48.965Z,7.55
2022-12-08T12:51:56.206Z,7.45
2022-12-08T12:54:22.335Z,7.47
2022-12-08T12:56:48.885Z,7.45
2022-12-08T12:58:55.193Z,6.88
2022-12-08T13:01:32.102Z,6.65
2022-12-08T13:03:35.978Z,7.13
2022-12-08T13:05:51.571Z,8.50
2022-12-08T13:07:58.859Z,7.70
2022-12-08T13:10:17.329Z,7.95
2022-12-08T13:12:25.199Z,7.10
2022-12-08T13:14:35.261Z,6.70
2022-12-08T13:16:40.916Z,7.40
2022-12-08T13:18:50.726Z,7.20
2022-12-08T13:20:58.803Z,6.57
2022-12-08T13:23:26.219Z,8.20
2022-12-08T13:25:52.888Z,7.53
2022-12-08T13:27:56.492Z,7.85
2022-12-08T13:30:37.129Z,8.43
2022-12-08T13:33:17.868Z,8.25
2022-12-08T13:35:22.422Z,8.23
2022-12-08T13:37:31.058Z,7.88
2022-12-08T13:39:43.655Z,7.32
2022-12-08T13:41:54.807Z,8.83
2022-12-08T13:47:17.275Z,8.30
2022-12-08T13:59:09.456Z,4.75
2022-12-08T14:01:17.882Z,3.95
2022-12-08T14:03:21.538Z,4.90
2022-12-08T14:05:48.068Z,4.72
2022-12-08T14:07:54.198Z,4.82
2022-12-08T14:10:00.035Z,5.20
2022-12-08T14:12:05.668Z,4.10
2022-12-08T14:14:27.277Z,5.10
2022-12-08T14:16:41.524Z,4.50
2022-12-08T14:18:45.005Z,4.55
2022-12-08T14:21:20.483Z,4.07
2022-12-08T14:23:24.675Z,4.10
2022-12-08T14:25:29.680Z,4.47
2022-12-08T14:27:35.613Z,4.30
2022-12-08T14:29:45.758Z,3.65
2022-12-08T14:31:49.590Z,2.95
2022-12-08T14:33:56.540Z,2.75
2022-12-08T14:36:01.095Z,3.30
2022-12-08T14:38:06.617Z,2.90
2022-12-08T14:40:23.509Z,3.10
2022-12-08T14:42:28.801Z,2.42
2022-12-08T14:44:34.915Z,2.90
2022-12-08T14:46:40.437Z,2.40
2022-12-08T14:48:44.803Z,2.20
2022-12-08T14:51:00.484Z,2.45
2022-12-08T14:53:04.447Z,2.33
2022-12-08T14:55:09.141Z,2.53
2022-12-08T14:57:15.761Z,2.47
2022-12-08T14:59:23.205Z,2.38
2022-12-08T15:01:27.275Z,2.70
2022-12-08T15:03:33.999Z,3.22
2022-12-08T15:05:39.416Z,2.63
2022-12-08T15:07:48.949Z,2.40
2022-12-08T15:10:10.858Z,2.15
2022-12-08T15:12:27.107Z,2.33
2022-12-08T15:14:33.689Z,2.53
2022-12-08T15:16:41.211Z,2.35
2022-12-08T15:18:46.325Z,3.17
2022-12-08T15:20:53.186Z,2.78
2022-12-08T15:22:57.361Z,2.38
2022-12-08T15:25:02.070Z,2.03
2022-12-08T15:27:06.173Z,1.80
2022-12-08T15:29:15.405Z,2.22
2022-12-08T15:31:19.648Z,2.45
2022-12-08T15:33:23.581Z,2.15
2022-12-08T15:35:29.484Z,2.08
2022-12-08T15:37:33.286Z,2.63
2022-12-08T15:39:38.710Z,2.17
2022-12-08T15:41:42.327Z,2.55
2022-12-08T15:43:45.944Z,2.90
2022-12-08T15:45:58.254Z,3.50
2022-12-08T15:48:02.858Z,3.47
2022-12-08T15:50:08.173Z,3.13
2022-12-08T15:52:17.923Z,3.17
2022-12-08T15:54:21.629Z,3.70
2022-12-08T15:56:28.178Z,3.20
2022-12-08T15:58:52.845Z,3.85
2022-12-08T16:03:42.119Z,3.50
2022-12-08T16:05:44.267Z,3.60
2022-12-08T16:07:54.618Z,4.13
2022-12-08T16:10:01.076Z,4.28
2022-12-08T16:12:22.612Z,5.18
2022-12-08T16:18:53.345Z,6.50
2022-12-08T16:21:31.666Z,7.25
2022-12-08T16:23:41.713Z,7.88
2022-12-08T16:26:17.351Z,7.50
2022-12-08T16:28:45.281Z,13.25
2022-12-08T16:30:35.021Z,13.80
2022-12-08T16:32:38.604Z,41.38
2022-12-08T16:34:42.182Z,12.07
2022-12-08T16:36:45.844Z,11.95
2022-12-08T16:38:51.193Z,10.57
2022-12-08T16:41:12.283Z,9.63
2022-12-08T16:43:16.101Z,7.15
2022-12-08T16:45:22.144Z,9.80
2022-12-08T16:47:26.189Z,6.85
2022-12-08T16:49:29.879Z,7.10
2022-12-08T16:51:33.625Z,7.90
2022-12-08T16:53:37.036Z,9.10
2022-12-08T16:55:42.381Z,10.25
2022-12-08T16:57:47.484Z,9.60
2022-12-08T16:59:51.214Z,10.73
2022-12-08T17:01:54.913Z,12.73
2022-12-08T17:06:22.174Z,8.50
2022-12-08T17:08:25.731Z,10.93
2022-12-08T17:10:31.859Z,9.98
2022-12-08T17:12:37.019Z,8.60
2022-12-08T17:14:40.641Z,8.57
2022-12-08T17:16:45.393Z,9.57
2022-12-08T17:18:49.660Z,12.98
2022-12-08T17:20:53.218Z,11.77
2022-12-08T17:22:57.666Z,17.88
2022-12-08T17:25:02.090Z,59.83
2022-12-08T17:27:06.890Z,74.35
2022-12-08T17:29:11.760Z,15.10
2022-12-08T17:31:16.924Z,15.05
2022-12-08T17:33:26.612Z,13.63
2022-12-08T17:35:30.794Z,15.52
2022-12-08T17:37:34.500Z,15.40
2022-12-08T17:39:39.063Z,24.00
2022-12-08T17:41:42.778Z,19.50
2022-12-08T17:43:46.474Z,20.60
2022-12-08T17:45:51.397Z,14.00
2022-12-08T17:47:55.450Z,15.95
2022-12-08T17:49:59.477Z,12.73
2022-12-08T17:52:04.866Z,12.48
2022-12-08T17:54:08.795Z,18.40
2022-12-08T17:56:16.913Z,20.73
2022-12-08T17:58:21.272Z,16.40
2022-12-08T18:00:25.137Z,25.80
2022-12-08T18:02:33.664Z,14.32
2022-12-08T18:04:37.756Z,15.80
2022-12-08T18:06:43.179Z,13.95
2022-12-08T18:08:47.141Z,26.98
2022-12-08T18:10:51.469Z,13.27
2022-12-08T18:12:54.947Z,12.13
2022-12-08T18:14:59.386Z,12.88
2022-12-08T18:17:03.091Z,13.27
2022-12-08T18:19:10.260Z,14.07
2022-12-08T18:21:17.369Z,14.25
2022-12-08T18:23:25.527Z,13.70
2022-12-08T18:25:29.236Z,14.57
2022-12-08T18:27:37.289Z,13.90
2022-12-08T18:29:43.928Z,15.50
2022-12-08T18:31:47.557Z,18.30
2022-12-08T18:33:54.006Z,18.08
2022-12-08T18:35:59.791Z,18.48
2022-12-08T18:38:03.630Z,17.05
2022-12-08T18:40:08.715Z,17.20
2022-12-08T18:42:24.060Z,18.70
2022-12-08T18:44:28.131Z,20.10
2022-12-08T18:46:31.676Z,21.27
2022-12-08T18:48:36.354Z,22.40
2022-12-08T18:50:45.098Z,20.67
2022-12-08T18:52:50.560Z,18.83
2022-12-08T18:55:09.329Z,23.73
2022-12-08T18:57:13.326Z,23.90
2022-12-08T18:59:17.149Z,31.75
2022-12-08T19:01:21.214Z,32.72
2022-12-08T19:03:24.877Z,32.50
2022-12-08T19:05:28.738Z,31.55
2022-12-08T19:07:32.247Z,32.50
2022-12-08T19:09:37.334Z,39.88
2022-12-08T19:11:41.272Z,34.45
2022-12-08T19:13:44.735Z,34.08
2022-12-08T19:15:48.503Z,32.13
2022-12-08T19:17:52.508Z,36.42
2022-12-08T19:19:56.115Z,28.45
2022-12-08T19:22:00.399Z,27.85
2022-12-08T19:24:04.122Z,25.13
2022-12-08T19:26:09.834Z,25.05
2022-12-08T19:28:13.348Z,25.23
2022-12-08T19:30:17.483Z,25.15
2022-12-08T19:32:20.953Z,23.35
2022-12-08T19:34:24.787Z,25.90
2022-12-08T19:36:31.971Z,24.80
2022-12-08T19:38:56.199Z,25.80
2022-12-08T19:41:20.894Z,27.50
2022-12-08T19:43:44.008Z,24.80
2022-12-08T19:45:48.007Z,26.38
2022-12-08T19:47:51.830Z,26.48
2022-12-08T19:50:16.527Z,38.80
2022-12-08T19:52:20.570Z,24.73
2022-12-08T19:54:24.236Z,25.58
2022-12-08T19:56:28.254Z,24.60
2022-12-08T19:58:33.351Z,23.83
2022-12-08T20:00:39.549Z,20.95
2022-12-08T20:02:43.989Z,23.08
2022-12-08T20:04:47.727Z,22.30
2022-12-08T20:06:53.466Z,19.88
2022-12-08T20:08:57.282Z,32.47
2022-12-08T20:11:01.175Z,19.10
2022-12-08T20:13:23.162Z,26.10
2022-12-08T20:15:28.085Z,20.48
2022-12-08T20:17:31.855Z,17.00
2022-12-08T20:19:35.343Z,16.33
2022-12-08T20:21:40.735Z,15.60
2022-12-08T20:23:45.610Z,15.63
2022-12-08T20:25:50.647Z,14.48
2022-12-08T20:27:55.389Z,14.70
2022-12-08T20:29:59.262Z,13.35
2022-12-08T20:32:04.593Z,12.73
2022-12-08T20:34:08.804Z,14.27
2022-12-08T20:36:18.222Z,14.45
2022-12-08T20:38:21.802Z,15.93
2022-12-08T20:40:25.841Z,15.52
2022-12-08T20:42:29.555Z,15.40
2022-12-08T20:44:34.196Z,22.48
2022-12-08T20:46:38.290Z,15.23
2022-12-08T20:48:43.627Z,16.25
2022-12-08T20:50:47.209Z,14.63
2022-12-08T20:52:50.922Z,15.52
2022-12-08T20:54:56.266Z,16.20
2022-12-08T20:56:59.853Z,17.08
2022-12-08T20:59:03.651Z,18.25
2022-12-08T21:01:11.065Z,17.20
2022-12-08T21:03:15.707Z,19.00
2022-12-08T21:05:21.024Z,18.15
2022-12-08T21:07:25.013Z,19.38
2022-12-08T21:09:28.890Z,19.38
2022-12-08T21:11:32.945Z,18.38
2022-12-08T21:13:38.793Z,18.88
2022-12-08T21:15:47.763Z,19.15
2022-12-08T21:17:52.170Z,17.05
2022-12-08T21:19:56.590Z,17.95
2022-12-08T21:22:01.901Z,20.10
2022-12-08T21:24:06.871Z,20.00
2022-12-08T21:26:16.524Z,20.23
2022-12-08T21:28:21.847Z,16.50
2022-12-08T21:30:26.334Z,24.27
2022-12-08T21:32:31.077Z,15.82
2022-12-08T21:34:35.555Z,16.52
2022-12-08T21:36:39.747Z,17.48
2022-12-08T21:38:45.686Z,14.43
2022-12-08T21:40:49.444Z,14.50
2022-12-08T21:42:53.474Z,15.05
2022-12-08T21:44:57.289Z,14.07
2022-12-08T21:47:01.501Z,13.90
2022-12-08T21:49:06.368Z,14.38
2022-12-08T21:51:10.302Z,14.45
2022-12-08T21:53:13.989Z,15.70
2022-12-08T21:55:21.088Z,14.35
2022-12-08T21:57:24.848Z,15.70
2022-12-08T21:59:28.499Z,14.77
2022-12-08T22:01:32.020Z,14.88
2022-12-08T22:03:35.743Z,15.93
2022-12-08T22:05:39.463Z,14.45
2022-12-08T22:07:43.677Z,14.48
2022-12-08T22:09:47.402Z,15.23
2022-12-08T22:11:52.377Z,14.60
2022-12-08T22:13:56.088Z,16.48
2022-12-08T22:16:01.054Z,17.92
2022-12-08T22:18:05.375Z,17.60
2022-12-08T22:20:12.548Z,15.93
2022-12-08T22:22:16.201Z,15.95
2022-12-08T22:24:19.554Z,15.13
2022-12-08T22:26:22.954Z,14.38
2022-12-08T22:28:28.383Z,14.65
2022-12-08T22:30:37.237Z,16.33
2022-12-08T22:32:42.586Z,15.48
2022-12-08T22:34:45.974Z,15.90
2022-12-08T22:36:49.640Z,15.07
2022-12-08T22:38:53.953Z,14.35
2022-12-08T22:40:57.498Z,15.43
2022-12-08T22:43:00.805Z,14.75
2022-12-08T22:47:09.308Z,14.95
2022-12-08T22:49:13.087Z,15.13
2022-12-08T22:51:17.058Z,15.18
2022-12-08T22:53:20.543Z,15.35
2022-12-08T22:55:24.362Z,15.68
2022-12-08T22:57:29.075Z,14.00
2022-12-08T22:59:34.106Z,13.48
2022-12-08T23:01:39.187Z,14.48
2022-12-08T23:03:43.135Z,35.63
2022-12-08T23:05:47.050Z,15.80
2022-12-08T23:07:53.200Z,13.75
2022-12-08T23:09:58.443Z,14.32
2022-12-08T23:12:02.148Z,13.88
2022-12-08T23:14:06.078Z,14.02
2022-12-08T23:16:11.793Z,14.10
2022-12-08T23:18:19.966Z,15.05
2022-12-08T23:20:23.817Z,14.35
2022-12-08T23:22:27.560Z,13.90
2022-12-08T23:24:31.333Z,14.45
2022-12-08T23:26:35.525Z,13.02
2022-12-08T23:28:39.286Z,12.90
2022-12-08T23:30:43.204Z,12.98
2022-12-08T23:32:47.250Z,13.48
2022-12-08T23:34:52.582Z,13.38
2022-12-08T23:36:56.204Z,12.80
2022-12-08T23:39:00.218Z,13.40
2022-12-08T23:41:04.755Z,14.25
2022-12-08T23:43:08.526Z,14.20
2022-12-08T23:45:13.024Z,14.90
2022-12-08T23:47:16.790Z,15.02
2022-12-08T23:49:21.620Z,14.13
2022-12-08T23:51:27.119Z,14.98
2022-12-08T23:53:31.439Z,13.98
2022-12-08T23:55:35.282Z,14.98
2022-12-08T23:57:39.637Z,14.35
2022-12-08T23:59:43.240Z,13.75
